Data for 11/29/2013

Time Sea-Level Adjusted Pressure Absolute Pressure Temperature Relative Humidity Dew Point   
(mb) (inHg) (mb) (inHg) (C) (F) (%) (C) (F)
00:05 1020 30.12 849 25.07 -0 32 61 -6.7 20
00:10 1020 30.12 849 25.07 0.1 32.2 60 -6.8 19.7
00:15 1020 30.12 849 25.07 0.2 32.3 61 -6.6 20.2
00:20 1020 30.12 849 25.07 -0.6 31 63 -6.9 19.7
00:25 1020 30.12 849 25.07 -0 32 60 -6.8 19.7
00:30 1020 30.12 850 25.1 -0.1 31.7 61 -6.7 19.9
00:35 1020 30.12 849 25.07 -0.8 30.6 64 -6.8 19.7
00:40 1020 30.12 850 25.1 -0.9 30.4 64 -6.8 19.7
00:45 1020 30.12 850 25.1 -0.3 31.4 61 -7 19.4
00:50 1020 30.12 850 25.1 -0.2 31.7 61 -6.8 19.8
00:55 1020 30.12 850 25.1 -0.1 31.8 61 -6.8 19.7
01:00 1020 30.12 850 25.1 -0.1 31.8 61 -6.7 19.9
01:05 1020 30.12 850 25.1 -0.3 31.5 62 -6.6 20.1
01:10 1020 30.12 850 25.1 -0.5 31.2 63 -6.6 20.1
01:15 1020 30.12 850 25.1 -0.4 31.3 63 -6.7 19.9
01:20 1020 30.12 849 25.07 -0.2 31.7 62 -6.7 20
01:25 1020 30.12 850 25.1 -0.5 31.1 63 -6.6 20.1
01:30 1020 30.12 850 25.1 -0.9 30.4 64 -6.9 19.6
01:35 1020 30.12 850 25.1 -0.9 30.4 63 -7 19.4
01:40 1020 30.12 849 25.07 -0.5 31.2 61 -7 19.4
01:45 1020 30.12 850 25.1 -0.1 31.8 60 -7 19.5
01:50 1020 30.12 850 25.1 0.2 32.4 59 -6.9 19.6
01:55 1020 30.12 850 25.1 0.2 32.4 59 -6.8 19.8
02:00 1020 30.12 850 25.1 0.2 32.3 59 -6.9 19.6
02:05 1020 30.12 850 25.1 0.2 32.3 59 -6.8 19.7
02:10 1020 30.12 850 25.1 0.2 32.4 59 -6.9 19.6
02:15 1020 30.12 850 25.1 0.3 32.6 59 -6.8 19.7
02:20 1021 30.15 850 25.1 0.3 32.5 59 -6.8 19.7
02:25 1021 30.15 850 25.1 0.5 32.9 58 -6.8 19.8
02:30 1021 30.15 850 25.1 0.6 33.1 58 -6.7 19.9
02:35 1021 30.15 850 25.1 0.8 33.4 56 -7 19.5
02:40 1021 30.15 850 25.1 0.6 33.2 57 -6.9 19.6
02:45 1021 30.15 850 25.1 -0.2 31.6 62 -6.7 19.9
02:50 1021 30.15 850 25.1 -0.7 30.7 63 -7 19.5
02:55 1021 30.15 850 25.1 -1.1 30 64 -7.1 19.2
03:00 1021 30.15 850 25.1 -0.8 30.6 61 -7.4 18.6
03:05 1021 30.15 850 25.1 -0.5 31.2 62 -6.8 19.7
03:10 1021 30.15 850 25.1 -0.7 30.7 61 -7.2 19
03:15 1021 30.15 850 25.1 -1 30.2 63 -7.2 19.1
03:20 1021 30.15 850 25.1 -1.4 29.5 64 -7.3 18.9
03:25 1021 30.15 850 25.1 -1.8 28.7 66 -7.4 18.7
03:30 1021 30.15 850 25.1 -2.2 28.1 67 -7.4 18.6
03:35 1021 30.15 850 25.1 -2 28.4 66 -7.5 18.5
03:40 1021 30.15 850 25.1 -1.8 28.7 66 -7.3 18.8
03:45 1021 30.15 850 25.1 -1.6 29.1 65 -7.4 18.8
03:50 1021 30.15 850 25.1 -1.2 29.9 63 -7.3 18.8
03:55 1021 30.15 850 25.1 -1.3 29.7 66 -6.9 19.7
04:00 1021 30.15 850 25.1 -1.1 30 65 -7 19.4
04:05 1021 30.15 850 25.1 -0.8 30.5 64 -6.8 19.7
04:10 1021 30.15 850 25.1 -0.8 30.5 63 -6.9 19.5
04:15 1021 30.15 850 25.1 -0.9 30.4 65 -6.7 19.9
04:20 1021 30.15 850 25.1 -1.3 29.6 66 -6.8 19.7
04:25 1021 30.15 850 25.1 -1.3 29.6 66 -6.9 19.5
04:30 1021 30.15 850 25.1 -1.2 29.9 65 -7 19.4
04:35 1021 30.15 850 25.1 -0.9 30.4 63 -7 19.5
04:40 1021 30.15 850 25.1 -0.8 30.6 63 -7 19.3
04:45 1020 30.12 850 25.1 -0.7 30.7 62 -7.1 19.2
04:50 1020 30.12 850 25.1 -0.3 31.5 59 -7.3 18.9
04:55 1020 30.12 850 25.1 -0.1 31.8 59 -7.1 19.2
05:00 1020 30.12 850 25.1 -1.1 30 64 -7.1 19.3
05:05 1020 30.12 850 25.1 -1.5 29.3 64 -7.4 18.7
05:10 1020 30.12 850 25.1 -1.3 29.6 64 -7.2 19
05:15 1020 30.12 850 25.1 -1.3 29.7 64 -7.2 19.1
05:20 1020 30.12 850 25.1 -1.2 29.8 65 -7 19.4
05:25 1020 30.12 850 25.1 -1.2 29.8 64 -7.1 19.2
05:30 1020 30.12 850 25.1 -1 30.2 64 -7 19.5
05:35 1020 30.12 850 25.1 -1.3 29.7 65 -7.1 19.2
05:40 1020 30.12 850 25.1 -1.7 28.9 67 -7.1 19.2
05:45 1021 30.15 850 25.1 -1.8 28.7 66 -7.3 18.9
05:50 1021 30.15 850 25.1 -1.3 29.7 63 -7.3 18.8
05:55 1021 30.15 850 25.1 -1 30.3 63 -7.2 19
06:00 1021 30.15 850 25.1 -0.7 30.7 62 -7.2 19
06:05 1021 30.15 850 25.1 -1 30.3 63 -7.2 19.1
06:10 1021 30.15 850 25.1 -1.1 30 62 -7.5 18.5
06:15 1021 30.15 850 25.1 -1.3 29.7 64 -7.2 19
06:20 1021 30.15 850 25.1 -1.6 29.2 64 -7.4 18.6
06:25 1021 30.15 850 25.1 -1.6 29.2 64 -7.6 18.3
06:30 1021 30.15 850 25.1 -1.7 28.9 64 -7.7 18.2
06:35 1021 30.15 850 25.1 -2 28.3 66 -7.5 18.4
06:40 1021 30.15 850 25.1 -2.4 27.6 67 -7.7 18.1
06:45 1021 30.15 850 25.1 -2.7 27.2 68 -7.9 17.9
06:50 1021 30.15 850 25.1 -3.2 26.2 71 -7.7 18.1
06:55 1021 30.15 850 25.1 -2.2 28 67 -7.6 18.3
07:00 1021 30.15 850 25.1 -1.9 28.7 66 -7.5 18.5
07:05 1021 30.15 850 25.1 -1.5 29.3 64 -7.4 18.7
07:10 1021 30.15 850 25.1 -1.5 29.2 64 -7.5 18.5
07:15 1021 30.15 850 25.1 -1.9 28.5 66 -7.6 18.4
07:20 1021 30.15 850 25.1 -1.9 28.6 64 -7.8 18
07:25 1021 30.15 850 25.1 -1.9 28.5 64 -7.8 17.9
07:30 1021 30.15 850 25.1 -2 28.4 64 -7.9 17.8
07:35 1021 30.15 850 25.1 -1.9 28.6 63 -8.1 17.5
07:40 1021 30.15 850 25.1 -1.6 29.2 62 -8 17.6
07:45 1021 30.15 850 25.1 -1.6 29.2 63 -7.7 18.2
07:50 1021 30.15 850 25.1 -1.6 29.2 62 -7.8 17.9
07:55 1021 30.15 850 25.1 -1.4 29.5 63 -7.6 18.3
08:00 1021 30.15 850 25.1 -1.3 29.6 62 -7.7 18.1
08:05 1021 30.15 850 25.1 -1.2 29.8 62 -7.5 18.4
08:10 1021 30.15 850 25.1 -0.8 30.6 60 -7.6 18.2
08:15 1021 30.15 850 25.1 -0.4 31.3 58 -7.8 18
08:20 1021 30.15 850 25.1 -0.5 31.1 61 -7.2 19
08:25 1021 30.15 850 25.1 -1.4 29.5 63 -7.6 18.4
08:30 1021 30.15 850 25.1 -1.5 29.3 63 -7.6 18.3
08:35 1021 30.15 850 25.1 -1.6 29.2 64 -7.6 18.3
08:40 1021 30.15 850 25.1 -1.4 29.4 63 -7.6 18.3
08:45 1021 30.15 850 25.1 -1 30.2 61 -7.6 18.3
08:50 1021 30.15 850 25.1 -0.8 30.5 61 -7.4 18.6
08:55 1021 30.15 850 25.1 -1.5 29.3 64 -7.4 18.6
09:00 1021 30.15 850 25.1 -1.9 28.6 65 -7.6 18.2
09:05 1021 30.15 850 25.1 -1.8 28.7 63 -7.9 17.7
09:10 1021 30.15 850 25.1 -1.9 28.5 65 -7.8 18
09:15 1021 30.15 850 25.1 -1.7 29 63 -7.8 17.9
09:20 1021 30.15 850 25.1 -2 28.5 64 -8 17.7
09:25 1021 30.15 850 25.1 -1.7 28.9 63 -7.9 17.9
09:30 1021 30.15 850 25.1 -1.4 29.5 61 -7.9 17.7
09:35 1021 30.15 850 25.1 -0.9 30.4 60 -7.7 18.1
09:40 1021 30.15 851 25.13 -0.3 31.4 57 -7.8 18
09:45 1021 30.15 851 25.13 -0.2 31.6 57 -7.7 18.2
09:50 1021 30.15 851 25.13 -0.5 31.2 57 -7.9 17.8
09:55 1022 30.18 851 25.13 -1 30.2 60 -7.9 17.8
10:00 1022 30.18 851 25.13 -1.4 29.5 61 -8.1 17.4
10:05 1022 30.18 851 25.13 -1.2 29.9 60 -8 17.7
10:10 1022 30.18 851 25.13 -1.1 30.1 60 -7.8 17.9
10:15 1022 30.18 851 25.13 -0.9 30.4 59 -7.8 17.9
10:20 1022 30.18 851 25.13 -0.3 31.5 56 -8 17.6
10:25 1022 30.18 851 25.13 0.3 32.6 55 -7.8 18
10:30 1022 30.18 851 25.13 0.7 33.3 53 -7.7 18.2
10:35 1022 30.18 851 25.13 0.8 33.5 54 -7.5 18.5
10:40 1022 30.18 851 25.13 1.1 34 54 -7.2 19
10:45 1022 30.18 851 25.13 0.8 33.5 53 -7.6 18.4
10:50 1022 30.18 851 25.13 1.2 34.1 52 -7.5 18.4
10:55 1022 30.18 851 25.13 2.1 35.8 47 -7.9 17.8
11:00 1022 30.18 851 25.13 3 37.4 46 -7.6 18.3
11:05 1022 30.18 851 25.13 3.7 38.6 43 -7.7 18.1
11:10 1022 30.18 851 25.13 4.2 39.6 42 -7.7 18.1
11:15 1022 30.18 851 25.13 4.4 39.9 42 -7.3 18.9
11:20 1022 30.18 851 25.13 4.4 39.9 42 -7.4 18.7
11:25 1022 30.18 851 25.13 4.7 40.5 42 -7.1 19.3
11:30 1022 30.18 851 25.13 4.9 40.8 40 -7.5 18.4
11:35 1022 30.18 851 25.13 4.5 40.2 42 -7.3 18.9
11:40 1022 30.18 851 25.13 4.7 40.5 41 -7.4 18.6
11:45 1022 30.18 851 25.13 4.8 40.6 40 -7.6 18.3
11:50 1022 30.18 851 25.13 5.7 42.3 39 -7.3 18.9
11:55 1022 30.18 851 25.13 5.7 42.3 40 -6.7 19.9
12:00 1022 30.18 851 25.13 5.9 42.6 39 -7.1 19.2
12:05 1021 30.15 851 25.13 6.1 43 36 -7.7 18.1
12:10 1021 30.15 851 25.13 5.6 42.1 38 -7.6 18.4
12:15 1021 30.15 851 25.13 5.8 42.5 38 -7.5 18.4
12:20 1021 30.15 851 25.13 6.1 43 38 -7.3 18.8
12:25 1021 30.15 851 25.13 6.4 43.5 37 -7.4 18.7
12:30 1021 30.15 851 25.13 6.5 43.7 38 -7 19.5
12:35 1021 30.15 850 25.1 6.4 43.5 37 -7.4 18.8
12:40 1021 30.15 850 25.1 6.3 43.4 36 -7.6 18.4
12:45 1021 30.15 850 25.1 6.4 43.5 37 -7.3 18.9
12:50 1021 30.15 850 25.1 6.8 44.2 36 -7.4 18.8
12:55 1021 30.15 850 25.1 7.3 45.1 36 -6.9 19.5
13:00 1021 30.15 850 25.1 7.5 45.5 35 -7 19.4
13:05 1021 30.15 850 25.1 7.5 45.5 36 -6.7 20
13:10 1021 30.15 850 25.1 7.5 45.6 36 -6.6 20
13:15 1021 30.15 850 25.1 6.9 44.4 38 -6.4 20.5
13:20 1021 30.15 850 25.1 6.2 43.1 39 -6.7 20
13:25 1021 30.15 850 25.1 5.8 42.5 40 -6.7 20
13:30 1021 30.15 850 25.1 6 42.9 39 -6.7 19.9
13:35 1020 30.12 850 25.1 6.3 43.3 38 -6.9 19.6
13:40 1020 30.12 850 25.1 6.7 44.1 38 -6.5 20.3
13:45 1020 30.12 849 25.07 6.5 43.7 40 -6.2 20.8
13:50 1020 30.12 849 25.07 6.4 43.5 40 -6.4 20.5
13:55 1020 30.12 849 25.07 6.5 43.6 40 -6.1 21
14:00 1020 30.12 849 25.07 6.6 43.8 40 -6.2 20.8
14:05 1020 30.12 849 25.07 7 44.6 37 -6.7 20
14:10 1020 30.12 849 25.07 7.3 45.1 38 -6.2 20.8
14:15 1020 30.12 849 25.07 7.5 45.4 36 -6.5 20.3
14:20 1020 30.12 849 25.07 7.8 46 34 -7.2 19
14:25 1020 30.12 849 25.07 8.2 46.8 33 -7.1 19.2
14:30 1020 30.12 849 25.07 8.6 47.4 33 -6.8 19.7
14:35 1020 30.12 849 25.07 8.2 46.8 35 -6.3 20.7
14:40 1020 30.12 849 25.07 7.5 45.5 37 -6.3 20.7
14:45 1020 30.12 849 25.07 7.1 44.8 37 -6.6 20.1
14:50 1020 30.12 849 25.07 7.2 45 38 -6.3 20.7
14:55 1020 30.12 849 25.07 7.2 44.9 38 -6.1 21
15:00 1020 30.12 849 25.07 6.9 44.4 36 -7.1 19.3
15:05 1020 30.12 849 25.07 7.1 44.7 35 -7.2 19
15:10 1020 30.12 849 25.07 7.3 45.1 34 -7.7 18.1
15:15 1019 30.09 849 25.07 7.5 45.6 33 -7.6 18.4
15:20 1019 30.09 849 25.07 7.8 46.1 32 -7.9 17.7
15:25 1019 30.09 849 25.07 8.2 46.8 32 -7.4 18.8
15:30 1019 30.09 849 25.07 8.4 47 33 -6.9 19.6
15:35 1019 30.09 849 25.07 7.9 46.2 34 -6.8 19.7
15:40 1019 30.09 849 25.07 8.3 46.9 33 -7 19.4
15:45 1019 30.09 849 25.07 8.6 47.4 32 -7.4 18.8
15:50 1019 30.09 849 25.07 8.7 47.7 31 -7.6 18.3
15:55 1019 30.09 849 25.07 8.9 48 31 -7.5 18.5
16:00 1019 30.09 849 25.07 9 48.2 31 -7.1 19.3
16:05 1019 30.09 848 25.04 9.2 48.5 31 -7.2 19
16:10 1019 30.09 848 25.04 9.2 48.6 30 -7.3 18.9
16:15 1019 30.09 849 25.07 8.7 47.7 31 -7.4 18.7
16:20 1019 30.09 848 25.04 8.8 47.8 32 -6.9 19.6
16:25 1019 30.09 848 25.04 9.1 48.4 31 -7.2 19
16:30 1019 30.09 849 25.07 9.9 49.7 33 -5.8 21.6
16:35 1019 30.09 849 25.07 9.3 48.8 32 -6.3 20.6
16:40 1019 30.09 848 25.04 9.2 48.5 33 -6.1 21.1
16:45 1019 30.09 848 25.04 8.6 47.5 34 -6.4 20.5
16:50 1019 30.09 848 25.04 8.1 46.6 35 -6.5 20.3
16:55 1019 30.09 848 25.04 8.1 46.5 35 -6.3 20.7
17:00 1019 30.09 848 25.04 8.3 46.9 34 -6.8 19.8
17:05 1019 30.09 848 25.04 8.3 47 35 -6.3 20.6
17:10 1019 30.09 848 25.04 8.1 46.7 34 -6.8 19.7
17:15 1019 30.09 848 25.04 8.3 46.9 34 -6.8 19.7
17:20 1019 30.09 848 25.04 8.1 46.6 37 -5.6 21.9
17:25 1019 30.09 848 25.04 7.4 45.3 39 -5.7 21.7
17:30 1019 30.09 849 25.07 7 44.6 39 -6.1 21
17:35 1019 30.09 848 25.04 6.4 43.5 42 -5.6 21.9
17:40 1019 30.09 848 25.04 6 42.7 43 -5.6 22
17:45 1019 30.09 849 25.07 5.5 41.9 45 -5.5 22.2
17:50 1019 30.09 849 25.07 5.3 41.6 47 -5.2 22.7
17:55 1019 30.09 849 25.07 4.9 40.7 47 -5.5 22.2
18:00 1019 30.09 849 25.07 4.4 40 50 -5 22.9
18:05 1019 30.09 849 25.07 4 39.1 51 -5.2 22.7
18:10 1020 30.12 849 25.07 3.8 38.9 52 -5.2 22.7
18:15 1020 30.12 849 25.07 3.9 39 51 -5.2 22.6
18:20 1020 30.12 849 25.07 3.6 38.5 54 -4.7 23.5
18:25 1020 30.12 849 25.07 3.4 38 54 -5 23
18:30 1020 30.12 849 25.07 3.4 38.1 55 -4.9 23.1
18:35 1020 30.12 849 25.07 3.1 37.6 57 -4.7 23.6
18:40 1020 30.12 849 25.07 2.8 37.1 58 -4.6 23.6
18:45 1020 30.12 849 25.07 2.7 36.9 58 -4.7 23.5
18:50 1020 30.12 849 25.07 2.7 36.9 58 -4.7 23.5
18:55 1020 30.12 849 25.07 2.6 36.7 59 -4.7 23.6
19:00 1020 30.12 849 25.07 2.5 36.5 59 -4.8 23.3
19:05 1020 30.12 849 25.07 2.3 36.2 59 -4.8 23.3
19:10 1020 30.12 849 25.07 2.2 35.9 59 -5 23.1
19:15 1020 30.12 849 25.07 2 35.7 60 -4.9 23.1
19:20 1020 30.12 849 25.07 1.8 35.3 60 -5.1 22.9
19:25 1020 30.12 849 25.07 1.7 35.1 61 -4.9 23.1
19:30 1020 30.12 849 25.07 2 35.6 60 -4.9 23.1
19:35 1020 30.12 849 25.07 2.2 36 58 -5.2 22.6
19:40 1020 30.12 849 25.07 1.9 35.4 59 -5.4 22.3
19:45 1020 30.12 849 25.07 1.9 35.4 60 -5 23
19:50 1020 30.12 849 25.07 2.2 36 60 -4.8 23.4
19:55 1020 30.12 849 25.07 2.3 36.1 57 -5.4 22.2
20:00 1020 30.12 849 25.07 2 35.6 58 -5.5 22.1
20:05 1020 30.12 849 25.07 1.8 35.3 58 -5.5 22
20:10 1020 30.12 849 25.07 1.8 35.2 58 -5.7 21.8
20:15 1020 30.12 849 25.07 1.9 35.4 57 -5.6 21.9
20:20 1020 30.12 849 25.07 1.8 35.2 58 -5.6 22
20:25 1020 30.12 849 25.07 1.6 34.8 59 -5.7 21.8
20:30 1020 30.12 849 25.07 1.4 34.5 60 -5.6 21.9
20:35 1020 30.12 849 25.07 1.2 34.2 59 -5.9 21.4
20:40 1020 30.12 849 25.07 1.4 34.5 59 -5.8 21.6
20:45 1020 30.12 849 25.07 1.4 34.5 59 -5.7 21.8
20:50 1020 30.12 849 25.07 1.5 34.8 59 -5.6 21.9
20:55 1020 30.12 849 25.07 1.8 35.3 59 -5.3 22.5
21:00 1020 30.12 849 25.07 1.9 35.4 59 -5.4 22.3
21:05 1020 30.12 849 25.07 1.8 35.2 59 -5.5 22.1
21:10 1020 30.12 849 25.07 1.8 35.2 57 -5.8 21.6
21:15 1020 30.12 849 25.07 1.8 35.3 57 -5.8 21.6
21:20 1020 30.12 849 25.07 1.8 35.3 58 -5.6 21.9
21:25 1020 30.12 850 25.1 1.9 35.5 57 -5.6 21.9
21:30 1020 30.12 850 25.1 1.8 35.2 58 -5.7 21.8
21:35 1020 30.12 850 25.1 1.5 34.6 60 -5.6 22
21:40 1020 30.12 850 25.1 1.8 35.2 58 -5.6 21.9
21:45 1020 30.12 850 25.1 1.9 35.4 58 -5.4 22.3
21:50 1020 30.12 850 25.1 1.6 34.9 60 -5.4 22.3
21:55 1020 30.12 850 25.1 1.4 34.5 60 -5.6 22
22:00 1020 30.12 850 25.1 1.4 34.5 60 -5.5 22.1
22:05 1020 30.12 850 25.1 1.1 34.1 61 -5.6 22
22:10 1020 30.12 850 25.1 1.1 34 61 -5.5 22.1
22:15 1021 30.15 850 25.1 1.2 34.1 60 -5.7 21.7
22:20 1021 30.15 850 25.1 1.4 34.5 60 -5.6 22
22:25 1021 30.15 850 25.1 1.5 34.8 58 -5.8 21.6
22:30 1021 30.15 850 25.1 2 35.6 57 -5.8 21.6
22:35 1021 30.15 850 25.1 2.3 36.2 53 -6.3 20.7
22:40 1021 30.15 850 25.1 2.9 37.2 53 -5.8 21.5
22:45 1021 30.15 850 25.1 2.6 36.6 55 -5.6 22
22:50 1021 30.15 850 25.1 2.6 36.6 52 -6.4 20.5
22:55 1021 30.15 850 25.1 3 37.4 52 -5.9 21.4
23:00 1021 30.15 850 25.1 2.8 37 56 -5.1 22.8
23:05 1021 30.15 850 25.1 2 35.5 58 -5.4 22.2
23:10 1021 30.15 850 25.1 1.6 34.9 60 -5.4 22.2
23:15 1021 30.15 850 25.1 1.7 35.1 59 -5.5 22
23:20 1021 30.15 850 25.1 2.1 35.8 56 -5.7 21.7
23:25 1021 30.15 851 25.13 2.6 36.7 56 -5.4 22.2
23:30 1021 30.15 851 25.13 2.7 36.9 54 -5.6 22
23:35 1022 30.18 851 25.13 3 37.4 54 -5.4 22.2
23:40 1022 30.18 851 25.13 3.2 37.7 54 -5.3 22.5
23:45 1022 30.18 851 25.13 3.2 37.8 54 -5.1 22.7
23:50 1022 30.18 851 25.13 3 37.4 55 -5.2 22.6
23:55 1022 30.18 851 25.13 2.8 37 55 -5.3 22.5
24:00 1022 30.18 851 25.13 2.9 37.2 56 -5.1 22.8